CheckWX is a tool to help pilots better visualize weather data.  It is not intended as a substitute for an official pre-flight weather briefing.

13:30:12 UTC

KNSI METAR
San Nicolas Island Nolf Airport
San Nicolas Island, California, USA
Current

12 hours ago

KNSI 110107Z AUTO 36007KT 10SM FEW012 A3018 RMK AO2 $
Observed
Dec-11 @ 01:07 UTC
Wind
  • 360° at 7 KTS
Visibility
10 SM
Flight Rules
VFR
Cloud Levels
  • Few at 1,200' AGL
Altimeter
30.18" Hg
Pressure
1022.02 hPa
Previous

14 hours ago

KNSI 102353Z COR 33004KT 10SM BKN012 14/11 A3019 RMK AO2 SLP219 T01390106 10172 20150 58014 $
Observed
Dec-10 @ 23:53 UTC
Wind
  • 330° at 4 KTS
Visibility
10 SM
Flight Rules
MVFR
Cloud Levels
  • Broken at 1,200' AGL
Temperature
14°C / 57°F
Dewpoint
11°C / 52°F
Humidity
82%
Altimeter
30.19" Hg
Pressure
1022.32 hPa
Previous

15 hours ago

KNSI 102253Z 03005KT 10SM FEW025 SCT240 15/11 A3017 RMK AO2 SLP212 T01500106 $
Observed
Dec-10 @ 22:53 UTC
Wind
  • 030° at 5 KTS
Visibility
10 SM
Flight Rules
VFR
Cloud Levels
  • Few at 2,500' AGL
  • Scattered at 24,000' AGL
Temperature
15°C / 59°F
Dewpoint
11°C / 52°F
Humidity
77%
Altimeter
30.17" Hg
Pressure
1021.72 hPa